Time;durP1;ratioP1;P1;durP2;ratioP2;P2;SDS_P1;SDS_P2;PMS_P1;PMS_P2;Temp;Humidity;BMP_temperature;BMP_pressure;BME280_temperature;BME280_humidity;BME280_pressure;Samples;Min_cycle;Max_cycle;Signal;HPM_P1;HPM_P2
2022/12/02 00:01:01;;;;;;;55.30;26.23;;;;;;;;;;5070860;28;20037;-70
2022/12/02 00:03:29;;;;;;;56.47;27.13;;;;;;;;;;5066793;28;20044;-70
2022/12/02 00:05:56;;;;;;;67.32;28.73;;;;;;;;;;5067628;28;20098;-71
2022/12/02 00:08:28;;;;;;;63.67;29.55;;;;;;;;;;5063642;28;20044;-71
2022/12/02 00:10:56;;;;;;;80.97;32.63;;;;;;;;;;5058179;28;20053;-71
2022/12/02 00:13:25;;;;;;;68.00;26.95;;;;;;;;;;5079973;28;20138;-71
2022/12/02 00:15:57;;;;;;;55.08;25.60;;;;;;;;;;5067061;28;20112;-70
2022/12/02 00:18:25;;;;;;;63.75;27.50;;;;;;;;;;5070887;28;20384;-72
2022/12/02 00:20:53;;;;;;;67.15;30.02;;;;;;;;;;5070564;28;20090;-71
2022/12/02 00:23:21;;;;;;;59.20;29.02;;;;;;;;;;5070633;28;20048;-70
2022/12/02 00:25:50;;;;;;;64.63;28.08;;;;;;;;;;5068567;28;20560;-70
2022/12/02 00:28:17;;;;;;;61.88;27.17;;;;;;;;;;5061822;28;20578;-70
2022/12/02 00:30:45;;;;;;;62.40;27.80;;;;;;;;;;5069845;28;20045;-70
2022/12/02 00:33:14;;;;;;;63.38;28.35;;;;;;;;;;5064832;28;20392;-70
2022/12/02 00:35:42;;;;;;;58.72;25.73;;;;;;;;;;5065327;28;20051;-70
2022/12/02 00:38:10;;;;;;;57.47;26.45;;;;;;;;;;5059713;28;20044;-70
2022/12/02 00:40:37;;;;;;;52.53;25.45;;;;;;;;;;5063912;28;20068;-70
2022/12/02 00:48:38;;;;;;;60.50;28.52;;;;;;;;;;5055651;28;20064;-70
2022/12/02 00:51:06;;;;;;;61.17;27.17;;;;;;;;;;5052834;28;20095;-71
2022/12/02 00:53:33;;;;;;;62.17;27.90;;;;;;;;;;5062451;28;20048;-71
2022/12/02 00:56:01;;;;;;;58.67;26.88;;;;;;;;;;5062880;28;20048;-69
2022/12/02 00:58:29;;;;;;;49.50;25.42;;;;;;;;;;5060123;28;20044;-70
2022/12/02 01:00:57;;;;;;;50.50;25.23;;;;;;;;;;5059998;28;20468;-70
2022/12/02 01:03:24;;;;;;;48.85;23.60;;;;;;;;;;5054917;28;20046;-71
2022/12/02 01:05:52;;;;;;;49.45;24.30;;;;;;;;;;5049716;28;20063;-71
2022/12/02 01:08:24;;;;;;;44.67;23.80;;;;;;;;;;5066956;28;20110;-70
2022/12/02 01:10:51;;;;;;;49.33;24.58;;;;;;;;;;5069092;28;20089;-70
2022/12/02 01:13:19;;;;;;;50.67;24.75;;;;;;;;;;5064587;28;20044;-71
2022/12/02 01:15:47;;;;;;;48.15;23.90;;;;;;;;;;5067936;28;20037;-71
2022/12/02 01:18:14;;;;;;;51.10;24.55;;;;;;;;;;5068465;28;20071;-71
2022/12/02 01:20:42;;;;;;;54.67;25.77;;;;;;;;;;5067845;28;20036;-70
2022/12/02 01:23:10;;;;;;;45.97;23.60;;;;;;;;;;5056695;28;20094;-71
2022/12/02 01:25:37;;;;;;;47.08;23.38;;;;;;;;;;5063594;28;20055;-71
2022/12/02 01:28:05;;;;;;;43.25;22.92;;;;;;;;;;5069513;28;20048;-70
2022/12/02 01:30:33;;;;;;;51.05;24.90;;;;;;;;;;5068996;28;20232;-71
2022/12/02 01:33:01;;;;;;;53.80;24.63;;;;;;;;;;5060089;28;20048;-71
2022/12/02 01:35:29;;;;;;;45.95;22.17;;;;;;;;;;5065746;28;20063;-71
2022/12/02 01:37:56;;;;;;;47.88;24.55;;;;;;;;;;5063143;28;20041;-70
2022/12/02 01:40:24;;;;;;;50.85;23.85;;;;;;;;;;5064404;28;20033;-71
2022/12/02 01:42:52;;;;;;;45.92;23.58;;;;;;;;;;5061982;28;20471;-72
2022/12/02 01:45:20;;;;;;;49.58;25.58;;;;;;;;;;5065504;28;20605;-73
2022/12/02 01:47:47;;;;;;;44.03;23.10;;;;;;;;;;5060419;28;20067;-73
2022/12/02 01:50:16;;;;;;;50.20;24.58;;;;;;;;;;5053502;28;20128;-71
2022/12/02 01:52:43;;;;;;;51.83;25.33;;;;;;;;;;5059857;28;20041;-71
2022/12/02 01:55:12;;;;;;;49.05;24.73;;;;;;;;;;5061629;28;20458;-70
2022/12/02 01:57:40;;;;;;;46.15;22.90;;;;;;;;;;5065421;28;20051;-70
2022/12/02 02:00:08;;;;;;;47.78;24.02;;;;;;;;;;5048558;28;20045;-70
2022/12/02 02:02:39;;;;;;;48.45;24.55;;;;;;;;;;5059536;28;20045;-69
2022/12/02 02:05:18;;;;;;;53.83;25.98;;;;;;;;;;5064166;28;20044;-70
2022/12/02 02:07:48;;;;;;;47.95;23.58;;;;;;;;;;5049682;28;20098;-71
2022/12/02 02:10:16;;;;;;;47.88;25.67;;;;;;;;;;5054284;28;20040;-71
2022/12/02 02:12:45;;;;;;;43.45;23.40;;;;;;;;;;5058667;28;20507;-70
2022/12/02 02:15:13;;;;;;;47.17;23.52;;;;;;;;;;5066582;28;20044;-72
2022/12/02 02:17:41;;;;;;;43.10;24.88;;;;;;;;;;5065798;28;20037;-71
2022/12/02 02:20:11;;;;;;;51.83;24.60;;;;;;;;;;5067941;28;20041;-71
2022/12/02 02:22:41;;;;;;;41.70;21.30;;;;;;;;;;5067381;28;20127;-70
2022/12/02 02:25:10;;;;;;;46.75;22.92;;;;;;;;;;5065852;28;20098;-71
2022/12/02 02:27:46;;;;;;;46.90;23.95;;;;;;;;;;5051634;28;20136;-71
2022/12/02 02:30:13;;;;;;;46.58;22.50;;;;;;;;;;5067245;28;20040;-72
2022/12/02 02:32:42;;;;;;;44.85;23.00;;;;;;;;;;5064230;28;20446;-71
2022/12/02 02:35:11;;;;;;;44.20;23.05;;;;;;;;;;5105027;22;20501;-84
2022/12/02 02:37:38;;;;;;;42.58;22.10;;;;;;;;;;5084927;28;20529;-84
2022/12/02 02:40:06;;;;;;;41.90;22.33;;;;;;;;;;5063681;28;20032;-84
2022/12/02 02:42:34;;;;;;;40.03;22.67;;;;;;;;;;5065046;28;20076;-84
2022/12/02 02:45:02;;;;;;;47.85;23.80;;;;;;;;;;5063432;28;20120;-84
2022/12/02 02:47:30;;;;;;;48.22;23.95;;;;;;;;;;5071969;28;20123;-84
2022/12/02 02:49:57;;;;;;;49.60;24.60;;;;;;;;;;5056128;28;20397;-87
2022/12/02 02:52:26;;;;;;;51.25;24.85;;;;;;;;;;5066926;28;20036;-85
2022/12/02 02:54:54;;;;;;;46.30;23.08;;;;;;;;;;5072225;28;20112;-85
2022/12/02 02:57:23;;;;;;;46.35;24.50;;;;;;;;;;5080719;28;20122;-86
2022/12/02 02:59:55;;;;;;;51.00;25.63;;;;;;;;;;5067869;28;20048;-85
2022/12/02 03:02:24;;;;;;;45.47;22.55;;;;;;;;;;5087591;28;20048;-84
2022/12/02 03:04:52;;;;;;;47.08;23.55;;;;;;;;;;5085257;28;20135;-83
2022/12/02 03:07:21;;;;;;;49.33;23.05;;;;;;;;;;5075500;28;20080;-84
2022/12/02 03:09:48;;;;;;;45.45;23.95;;;;;;;;;;5077537;28;20468;-84
2022/12/02 03:12:16;;;;;;;43.50;22.13;;;;;;;;;;5085015;28;20044;-84
2022/12/02 03:14:44;;;;;;;38.92;20.52;;;;;;;;;;5050520;28;20044;-84
2022/12/02 03:17:12;;;;;;;47.97;24.75;;;;;;;;;;5047160;28;20492;-83
2022/12/02 03:19:40;;;;;;;46.13;23.63;;;;;;;;;;5050212;28;20036;-83
2022/12/02 03:22:08;;;;;;;42.33;22.25;;;;;;;;;;5065911;28;20040;-85
2022/12/02 03:24:36;;;;;;;47.67;23.98;;;;;;;;;;5082660;28;20044;-85
2022/12/02 03:27:04;;;;;;;52.28;25.13;;;;;;;;;;5079830;28;20036;-83
2022/12/02 03:29:32;;;;;;;42.00;23.40;;;;;;;;;;5078959;28;20050;-86
2022/12/02 03:32:00;;;;;;;44.88;23.52;;;;;;;;;;5088641;28;20413;-84
2022/12/02 03:34:28;;;;;;;42.80;21.38;;;;;;;;;;5069505;28;20036;-84
2022/12/02 03:36:55;;;;;;;44.92;24.30;;;;;;;;;;5084320;28;20071;-84
2022/12/02 03:39:22;;;;;;;48.90;23.30;;;;;;;;;;5071211;28;20512;-84
2022/12/02 03:41:50;;;;;;;48.72;24.52;;;;;;;;;;5053997;28;20056;-84
2022/12/02 03:44:17;;;;;;;44.10;22.38;;;;;;;;;;5087404;28;20519;-84
2022/12/02 03:46:46;;;;;;;44.17;22.30;;;;;;;;;;5088270;28;20124;-85
2022/12/02 03:49:15;;;;;;;50.53;24.42;;;;;;;;;;5086889;28;20447;-85
2022/12/02 03:51:43;;;;;;;46.40;23.90;;;;;;;;;;5084437;28;20440;-84
2022/12/02 03:54:11;;;;;;;53.83;25.35;;;;;;;;;;5068328;28;20520;-84
2022/12/02 03:56:39;;;;;;;47.13;24.50;;;;;;;;;;5053702;28;20044;-83
2022/12/02 03:59:07;;;;;;;45.40;21.42;;;;;;;;;;5086363;28;20052;-85
2022/12/02 04:01:34;;;;;;;46.35;22.48;;;;;;;;;;5086342;28;20113;-84
2022/12/02 04:04:02;;;;;;;50.63;23.35;;;;;;;;;;5052141;28;20113;-85
2022/12/02 04:06:29;;;;;;;51.75;23.73;;;;;;;;;;5068293;28;20093;-84
2022/12/02 04:08:56;;;;;;;59.05;23.13;;;;;;;;;;5066724;28;20067;-84
2022/12/02 04:11:23;;;;;;;43.45;23.35;;;;;;;;;;5084587;28;20602;-84
2022/12/02 04:13:51;;;;;;;51.63;23.45;;;;;;;;;;5067537;28;20066;-87
2022/12/02 04:16:18;;;;;;;50.53;25.50;;;;;;;;;;5085529;28;20039;-85
2022/12/02 04:18:46;;;;;;;49.78;24.50;;;;;;;;;;5091872;28;20509;-84
2022/12/02 04:21:13;;;;;;;47.22;23.48;;;;;;;;;;5088463;28;20630;-85
2022/12/02 04:23:40;;;;;;;45.17;22.98;;;;;;;;;;5072605;28;20135;-85
2022/12/02 04:26:08;;;;;;;46.30;23.63;;;;;;;;;;5072726;28;20052;-84
2022/12/02 04:28:35;;;;;;;47.92;22.90;;;;;;;;;;5073096;28;20060;-85
2022/12/02 04:31:03;;;;;;;54.17;24.15;;;;;;;;;;5094797;28;20046;-86
2022/12/02 04:33:30;;;;;;;49.15;24.40;;;;;;;;;;5087388;28;20047;-85
2022/12/02 04:35:57;;;;;;;40.67;21.63;;;;;;;;;;5072990;28;20497;-84
2022/12/02 04:38:25;;;;;;;45.58;23.25;;;;;;;;;;5051340;28;20044;-84
2022/12/02 04:40:52;;;;;;;42.55;21.33;;;;;;;;;;5065068;28;20123;-84
2022/12/02 04:43:19;;;;;;;48.50;22.35;;;;;;;;;;5036963;28;20398;-87
2022/12/02 04:45:47;;;;;;;43.53;22.45;;;;;;;;;;5039074;28;20054;-84
2022/12/02 04:48:14;;;;;;;46.53;23.55;;;;;;;;;;5084258;28;20416;-84
2022/12/02 04:50:41;;;;;;;42.83;20.98;;;;;;;;;;5054069;28;20140;-84
2022/12/02 04:53:09;;;;;;;44.72;23.33;;;;;;;;;;5088266;28;20043;-84
2022/12/02 04:55:36;;;;;;;43.30;21.05;;;;;;;;;;5034673;28;20498;-86
2022/12/02 04:58:03;;;;;;;37.58;20.45;;;;;;;;;;5069482;28;20038;-86
2022/12/02 05:00:31;;;;;;;41.72;19.98;;;;;;;;;;5083595;28;20119;-84
2022/12/02 05:02:58;;;;;;;41.53;22.27;;;;;;;;;;5085743;28;20517;-85
2022/12/02 05:05:25;;;;;;;41.08;21.33;;;;;;;;;;5069334;28;20043;-85
2022/12/02 05:07:53;;;;;;;43.63;21.58;;;;;;;;;;5045626;28;20059;-84
2022/12/02 05:10:20;;;;;;;37.28;20.05;;;;;;;;;;5069139;28;20039;-84
2022/12/02 05:12:47;;;;;;;38.00;19.67;;;;;;;;;;5074059;28;20390;-84
2022/12/02 05:15:14;;;;;;;37.83;21.10;;;;;;;;;;5062616;28;20044;-86
2022/12/02 05:17:42;;;;;;;45.10;21.90;;;;;;;;;;5066269;28;20040;-86
2022/12/02 05:20:10;;;;;;;46.03;22.83;;;;;;;;;;5072066;28;20142;-84
2022/12/02 05:22:39;;;;;;;48.88;21.52;;;;;;;;;;5035817;28;20068;-84
2022/12/02 05:25:06;;;;;;;43.00;23.05;;;;;;;;;;5052421;28;20044;-85
2022/12/02 05:27:34;;;;;;;46.35;21.75;;;;;;;;;;5070059;28;20117;-86
2022/12/02 05:30:05;;;;;;;43.63;20.85;;;;;;;;;;5085610;28;20405;-86
2022/12/02 05:32:32;;;;;;;40.25;21.30;;;;;;;;;;5071582;28;20035;-84
2022/12/02 05:34:59;;;;;;;38.65;19.80;;;;;;;;;;5068947;28;20085;-84
2022/12/02 05:37:27;;;;;;;41.67;21.23;;;;;;;;;;5074270;28;20257;-84
2022/12/02 05:39:54;;;;;;;42.47;21.75;;;;;;;;;;5038302;28;20102;-84
2022/12/02 05:42:21;;;;;;;39.45;19.83;;;;;;;;;;5081986;28;20063;-84
2022/12/02 05:44:49;;;;;;;38.60;19.92;;;;;;;;;;5071708;28;20062;-86
2022/12/02 05:47:21;;;;;;;39.78;21.55;;;;;;;;;;5048957;28;20040;-85
2022/12/02 05:49:49;;;;;;;40.80;21.58;;;;;;;;;;5051803;28;20147;-85
2022/12/02 05:52:23;;;;;;;44.10;20.60;;;;;;;;;;5071304;28;20063;-84
2022/12/02 05:54:52;;;;;;;39.58;20.00;;;;;;;;;;5082885;28;20066;-84
2022/12/02 05:57:22;;;;;;;35.30;19.77;;;;;;;;;;5069258;28;20147;-85
2022/12/02 06:00:13;;;;;;;38.92;19.52;;;;;;;;;;5065304;28;20044;-83
2022/12/02 06:02:48;;;;;;;37.58;20.73;;;;;;;;;;5036655;28;20387;-84
2022/12/02 06:05:17;;;;;;;40.90;20.48;;;;;;;;;;5068139;28;20040;-84
2022/12/02 06:07:44;;;;;;;42.05;20.45;;;;;;;;;;5074404;28;20040;-83
2022/12/02 06:10:21;;;;;;;39.13;19.38;;;;;;;;;;5086409;28;20037;-85
2022/12/02 06:12:48;;;;;;;39.70;20.38;;;;;;;;;;5065393;28;20041;-86
2022/12/02 06:15:20;;;;;;;35.85;17.63;;;;;;;;;;5068856;28;20036;-83
2022/12/02 06:17:47;;;;;;;;;;;;;;;;;;5056580;28;20040;-84
2022/12/02 06:20:28;;;;;;;36.25;17.02;;;;;;;;;;5079129;28;19963;-84
2022/12/02 06:22:56;;;;;;;37.28;18.92;;;;;;;;;;5055363;28;20098;-84
2022/12/02 06:25:25;;;;;;;38.13;18.83;;;;;;;;;;5061058;28;20055;-84
2022/12/02 06:27:58;;;;;;;37.55;19.13;;;;;;;;;;5068909;28;20047;-86
2022/12/02 06:30:26;;;;;;;40.95;19.40;;;;;;;;;;5058505;28;20144;-87
2022/12/02 06:32:56;;;;;;;37.92;21.77;;;;;;;;;;5066906;28;20048;-88
2022/12/02 06:35:36;;;;;;;37.25;18.55;;;;;;;;;;5108049;28;20044;-87
2022/12/02 06:38:24;;;;;;;38.97;20.33;;;;;;;;;;5091465;28;20044;-85
2022/12/02 06:40:59;;;;;;;37.45;19.40;;;;;;;;;;5092070;28;20108;-83
2022/12/02 06:43:35;;;;;;;37.55;18.50;;;;;;;;;;5090239;28;20528;-87
2022/12/02 06:46:15;;;;;;;33.75;18.73;;;;;;;;;;5075423;28;20056;-82
2022/12/02 06:48:50;;;;;;;36.03;18.38;;;;;;;;;;5092743;28;20100;-87
2022/12/02 06:51:35;;;;;;;37.85;18.92;;;;;;;;;;5063478;28;20048;-88
2022/12/02 06:54:04;;;;;;;32.70;17.67;;;;;;;;;;5087718;28;20047;-85
2022/12/02 06:56:37;;;;;;;34.85;18.67;;;;;;;;;;5051751;28;20098;-85
2022/12/02 06:59:08;;;;;;;38.58;18.52;;;;;;;;;;5067729;28;20044;-83
2022/12/02 07:01:41;;;;;;;41.22;26.88;;;;;;;;;;5083703;28;20130;-85
2022/12/02 07:04:09;;;;;;;37.78;19.98;;;;;;;;;;5057881;28;20052;-86
2022/12/02 07:06:38;;;;;;;35.13;18.30;;;;;;;;;;5082400;28;20044;-84
2022/12/02 07:09:11;;;;;;;40.92;19.63;;;;;;;;;;5101369;28;20115;-87
2022/12/02 07:11:49;;;;;;;34.05;18.52;;;;;;;;;;5093458;28;20059;-83
2022/12/02 07:14:30;;;;;;;38.88;19.70;;;;;;;;;;5077706;28;20071;-85
2022/12/02 07:17:01;;;;;;;35.83;18.47;;;;;;;;;;5064389;28;20048;-85
2022/12/02 07:19:37;;;;;;;34.83;17.80;;;;;;;;;;5084174;28;20302;-84
2022/12/02 07:22:18;;;;;;;39.35;19.02;;;;;;;;;;5089928;28;20063;-85
2022/12/02 07:24:51;;;;;;;33.33;17.33;;;;;;;;;;5078687;28;20044;-84
2022/12/02 07:27:30;;;;;;;38.85;18.85;;;;;;;;;;5087765;28;20047;-86
2022/12/02 07:29:59;;;;;;;36.45;18.50;;;;;;;;;;5064396;28;20091;-83
2022/12/02 07:32:29;;;;;;;34.35;18.17;;;;;;;;;;5047715;28;20079;-83
2022/12/02 07:34:59;;;;;;;40.75;19.00;;;;;;;;;;5078459;28;20047;-84
2022/12/02 07:37:27;;;;;;;34.92;18.25;;;;;;;;;;5087988;28;20048;-84
2022/12/02 07:39:55;;;;;;;36.85;18.77;;;;;;;;;;5083945;28;20044;-86
2022/12/02 07:42:22;;;;;;;35.90;19.55;;;;;;;;;;5084988;28;20103;-84
2022/12/02 07:44:49;;;;;;;37.58;19.02;;;;;;;;;;5085418;28;20490;-86
2022/12/02 07:47:20;;;;;;;37.10;19.58;;;;;;;;;;5071066;28;20409;-84
2022/12/02 07:49:47;;;;;;;34.03;17.02;;;;;;;;;;5070081;28;20135;-85
2022/12/02 07:52:14;;;;;;;37.20;19.55;;;;;;;;;;5067975;28;20035;-85
2022/12/02 07:54:42;;;;;;;38.65;19.17;;;;;;;;;;5071076;28;20036;-84
2022/12/02 07:57:09;;;;;;;41.10;21.00;;;;;;;;;;5066244;28;20360;-87
2022/12/02 07:59:37;;;;;;;41.60;25.60;;;;;;;;;;5078323;28;20363;-83
2022/12/02 08:02:07;;;;;;;52.70;32.17;;;;;;;;;;5077435;28;20500;-84
2022/12/02 08:04:34;;;;;;;41.97;17.83;;;;;;;;;;5071550;28;20520;-85
2022/12/02 08:07:02;;;;;;;42.50;19.67;;;;;;;;;;5075756;28;20044;-85
2022/12/02 08:09:29;;;;;;;43.28;22.25;;;;;;;;;;5075721;28;20509;-84
2022/12/02 08:11:59;;;;;;;47.22;23.77;;;;;;;;;;5076222;28;20048;-85
2022/12/02 08:14:27;;;;;;;49.47;23.92;;;;;;;;;;5066636;28;20044;-86
2022/12/02 08:16:55;;;;;;;48.75;24.50;;;;;;;;;;5095670;28;20036;-85
2022/12/02 08:19:23;;;;;;;42.55;21.25;;;;;;;;;;5050308;28;20036;-84
2022/12/02 08:21:51;;;;;;;51.08;24.73;;;;;;;;;;5074179;28;20036;-86
2022/12/02 08:24:19;;;;;;;48.38;23.65;;;;;;;;;;5074691;28;20086;-85
2022/12/02 08:26:55;;;;;;;51.05;24.92;;;;;;;;;;5052119;28;20174;-84
2022/12/02 08:29:27;;;;;;;46.17;23.33;;;;;;;;;;5050289;28;20410;-84
2022/12/02 08:31:58;;;;;;;46.00;23.38;;;;;;;;;;5043268;28;20066;-84
2022/12/02 08:34:28;;;;;;;50.38;24.40;;;;;;;;;;5105221;22;20085;-80
2022/12/02 08:36:56;;;;;;;45.15;23.05;;;;;;;;;;5074373;28;20078;-82
2022/12/02 08:39:23;;;;;;;54.42;25.65;;;;;;;;;;5059266;28;20110;-79
2022/12/02 08:41:50;;;;;;;49.03;23.17;;;;;;;;;;5060334;28;20037;-83
2022/12/02 08:44:18;;;;;;;44.65;24.23;;;;;;;;;;5036483;28;20041;-83
2022/12/02 08:46:45;;;;;;;48.50;23.42;;;;;;;;;;4991502;28;20056;-84
2022/12/02 08:49:20;;;;;;;56.95;31.20;;;;;;;;;;5021543;28;20053;-83
2022/12/02 08:51:53;;;;;;;53.35;25.40;;;;;;;;;;5034954;28;20048;-82
2022/12/02 08:54:23;;;;;;;49.95;23.52;;;;;;;;;;5040204;28;20075;-82
2022/12/02 08:56:55;;;;;;;45.13;23.75;;;;;;;;;;5038200;28;20128;-82
2022/12/02 08:59:22;;;;;;;52.08;23.13;;;;;;;;;;5057994;28;20033;-80
2022/12/02 09:01:50;;;;;;;50.55;23.45;;;;;;;;;;5061373;28;20063;-84
2022/12/02 09:04:17;;;;;;;48.95;24.67;;;;;;;;;;5058768;28;20096;-84
2022/12/02 09:06:45;;;;;;;42.83;23.27;;;;;;;;;;5059122;28;20041;-82
2022/12/02 09:09:12;;;;;;;44.78;22.92;;;;;;;;;;5042214;28;20087;-81
2022/12/02 09:11:42;;;;;;;50.00;22.77;;;;;;;;;;5061189;28;20055;-82
2022/12/02 09:14:09;;;;;;;44.10;21.98;;;;;;;;;;5054841;28;20469;-83
2022/12/02 09:16:39;;;;;;;45.03;23.80;;;;;;;;;;5042313;28;20426;-84
2022/12/02 09:19:07;;;;;;;54.40;25.05;;;;;;;;;;5055797;28;20037;-82
2022/12/02 09:21:35;;;;;;;44.30;23.85;;;;;;;;;;5043465;28;20077;-82
2022/12/02 09:24:02;;;;;;;45.38;24.88;;;;;;;;;;5038595;28;20049;-83
2022/12/02 09:26:29;;;;;;;45.80;24.02;;;;;;;;;;5022776;28;20135;-82
2022/12/02 09:29:01;;;;;;;51.75;24.77;;;;;;;;;;5037471;28;20061;-83
2022/12/02 09:31:34;;;;;;;47.17;27.55;;;;;;;;;;5036452;28;20096;-84
2022/12/02 09:34:02;;;;;;;50.90;23.53;;;;;;;;;;5040298;28;20049;-82
2022/12/02 09:36:34;;;;;;;52.55;24.38;;;;;;;;;;5052627;28;20087;-82
2022/12/02 09:39:04;;;;;;;49.00;24.40;;;;;;;;;;5020673;28;20052;-81
2022/12/02 09:41:33;;;;;;;47.80;24.42;;;;;;;;;;5053417;28;20064;-80
2022/12/02 09:44:04;;;;;;;56.28;23.50;;;;;;;;;;5053896;28;20591;-82
2022/12/02 09:46:37;;;;;;;56.13;25.25;;;;;;;;;;5017463;28;20330;-83
2022/12/02 09:49:05;;;;;;;44.22;23.75;;;;;;;;;;5015800;28;20091;-84
2022/12/02 09:51:33;;;;;;;46.15;23.42;;;;;;;;;;5045846;28;20136;-83
2022/12/02 09:54:03;;;;;;;46.38;22.95;;;;;;;;;;5033817;28;20193;-84
2022/12/02 09:56:32;;;;;;;56.85;25.45;;;;;;;;;;5036377;28;20429;-83
2022/12/02 09:58:59;;;;;;;50.40;24.98;;;;;;;;;;5038971;28;20044;-83
2022/12/02 10:01:31;;;;;;;43.70;23.13;;;;;;;;;;5017041;28;20103;-82
2022/12/02 10:03:59;;;;;;;44.08;22.13;;;;;;;;;;5050873;28;20045;-83
2022/12/02 10:06:27;;;;;;;55.28;26.02;;;;;;;;;;5019071;28;20056;-83
2022/12/02 10:08:56;;;;;;;47.78;24.45;;;;;;;;;;5052311;28;20056;-83
2022/12/02 10:11:33;;;;;;;53.08;26.05;;;;;;;;;;5076097;28;20056;-81
2022/12/02 10:14:02;;;;;;;49.05;25.00;;;;;;;;;;5069189;28;20059;-82
2022/12/02 10:16:29;;;;;;;53.35;25.83;;;;;;;;;;5058755;28;20514;-83
2022/12/02 10:19:00;;;;;;;46.30;24.27;;;;;;;;;;5052134;28;20457;-82
2022/12/02 10:21:28;;;;;;;52.67;25.88;;;;;;;;;;5004024;28;20623;-82
2022/12/02 10:24:09;;;;;;;48.33;24.10;;;;;;;;;;5033682;28;20056;-82
2022/12/02 10:26:43;;;;;;;47.17;23.38;;;;;;;;;;5015242;28;20087;-82
2022/12/02 10:29:17;;;;;;;48.67;25.17;;;;;;;;;;5026052;28;20045;-82
2022/12/02 10:31:55;;;;;;;50.45;25.17;;;;;;;;;;5030958;28;20123;-83
2022/12/02 10:34:22;;;;;;;43.72;23.80;;;;;;;;;;5055063;28;20497;-82
2022/12/02 10:36:51;;;;;;;46.67;23.83;;;;;;;;;;5053880;28;21515;-82
2022/12/02 10:39:22;;;;;;;47.25;24.95;;;;;;;;;;5048567;28;20040;-83
2022/12/02 10:42:06;;;;;;;43.67;24.08;;;;;;;;;;5054917;28;20037;-83
2022/12/02 10:44:41;;;;;;;43.38;21.77;;;;;;;;;;5038429;28;20052;-82
2022/12/02 10:47:12;;;;;;;34.60;20.17;;;;;;;;;;5021775;28;20056;-82
2022/12/02 10:49:46;;;;;;;43.05;22.63;;;;;;;;;;5022060;28;20063;-82
2022/12/02 10:52:17;;;;;;;45.40;23.13;;;;;;;;;;5055408;28;20049;-83
2022/12/02 10:54:46;;;;;;;43.95;26.05;;;;;;;;;;5035481;28;20509;-83
2022/12/02 10:57:17;;;;;;;43.83;22.75;;;;;;;;;;5055269;28;20076;-83
2022/12/02 10:59:45;;;;;;;37.63;20.50;;;;;;;;;;5055651;28;20049;-84
2022/12/02 11:02:17;;;;;;;40.05;18.92;;;;;;;;;;5063630;28;20507;-83
2022/12/02 11:04:45;;;;;;;;;;;;;;;;;;5051848;28;20083;-82
2022/12/02 11:07:23;;;;;;;37.35;20.90;;;;;;;;;;5033627;28;19925;-82
2022/12/02 11:09:52;;;;;;;36.97;18.98;;;;;;;;;;5051426;28;20445;-83
2022/12/02 11:12:52;;;;;;;38.63;20.08;;;;;;;;;;5020016;28;20060;-82
2022/12/02 11:15:31;;;;;;;44.83;21.60;;;;;;;;;;5028156;28;20037;-83
2022/12/02 11:17:58;;;;;;;41.83;22.83;;;;;;;;;;5055798;28;20479;-84
2022/12/02 11:20:45;;;;;;;41.95;22.02;;;;;;;;;;5054183;28;20055;-83
2022/12/02 11:23:20;;;;;;;40.30;18.55;;;;;;;;;;5035035;28;20139;-83
2022/12/02 11:25:48;;;;;;;40.35;21.02;;;;;;;;;;5052798;28;20037;-82
2022/12/02 11:28:31;;;;;;;39.63;21.42;;;;;;;;;;5056326;28;20041;-82
2022/12/02 11:31:12;;;;;;;36.30;20.50;;;;;;;;;;5038439;28;20041;-82
2022/12/02 11:33:50;;;;;;;48.80;25.77;;;;;;;;;;5053857;28;20499;-82
2022/12/02 11:36:25;;;;;;;34.20;18.42;;;;;;;;;;5072390;28;20040;-83
2022/12/02 11:38:53;;;;;;;37.65;19.25;;;;;;;;;;5087955;28;20052;-81
2022/12/02 11:41:21;;;;;;;36.35;18.70;;;;;;;;;;5084612;28;20037;-83
2022/12/02 11:43:54;;;;;;;36.17;20.77;;;;;;;;;;5066711;28;20155;-82
2022/12/02 11:46:40;;;;;;;35.95;18.75;;;;;;;;;;5040304;28;20563;-82
2022/12/02 11:49:26;;;;;;;34.50;18.80;;;;;;;;;;5077860;28;20076;-83
2022/12/02 11:52:04;;;;;;;36.15;18.65;;;;;;;;;;5060236;28;20041;-82
2022/12/02 11:54:37;;;;;;;38.47;20.52;;;;;;;;;;5077519;28;20069;-83
2022/12/02 11:57:07;;;;;;;36.05;20.77;;;;;;;;;;5078139;28;20048;-83
2022/12/02 11:59:35;;;;;;;42.58;20.05;;;;;;;;;;5044073;28;20056;-81
2022/12/02 12:02:16;;;;;;;33.65;18.83;;;;;;;;;;5060389;28;20056;-83
2022/12/02 12:04:44;;;;;;;35.93;20.00;;;;;;;;;;5053923;28;20151;-83
2022/12/02 12:07:11;;;;;;;37.35;20.30;;;;;;;;;;5060960;28;20135;-83
2022/12/02 12:09:39;;;;;;;39.05;21.80;;;;;;;;;;5058804;28;20048;-85
2022/12/02 12:12:10;;;;;;;33.17;18.40;;;;;;;;;;5068493;28;20482;-83
2022/12/02 12:14:54;;;;;;;35.40;19.05;;;;;;;;;;5056973;28;20140;-85
2022/12/02 12:17:32;;;;;;;37.42;20.20;;;;;;;;;;5036870;28;20047;-83
2022/12/02 12:20:00;;;;;;;41.03;21.52;;;;;;;;;;5037864;28;20051;-83
2022/12/02 12:22:28;;;;;;;36.17;20.75;;;;;;;;;;5064002;28;20487;-82
2022/12/02 12:25:15;;;;;;;35.10;19.60;;;;;;;;;;5069248;28;20045;-82
2022/12/02 12:27:49;;;;;;;38.42;23.05;;;;;;;;;;5062213;28;20486;-83
2022/12/02 12:30:16;;;;;;;37.58;21.70;;;;;;;;;;5047488;28;20464;-84
2022/12/02 12:32:46;;;;;;;40.72;23.02;;;;;;;;;;5076213;28;20490;-82
2022/12/02 12:35:13;;;;;;;55.40;35.78;;;;;;;;;;5059396;28;20478;-82
2022/12/02 12:37:42;;;;;;;40.97;23.55;;;;;;;;;;5025271;28;20589;-83
2022/12/02 12:40:11;;;;;;;39.67;24.33;;;;;;;;;;5056849;28;20045;-82
2022/12/02 12:42:38;;;;;;;34.72;20.83;;;;;;;;;;5022005;28;20049;-82
2022/12/02 12:45:06;;;;;;;42.67;22.27;;;;;;;;;;5056576;28;20132;-84
2022/12/02 12:47:33;;;;;;;33.25;20.45;;;;;;;;;;5061504;28;20127;-84
2022/12/02 12:50:04;;;;;;;39.15;22.10;;;;;;;;;;5075319;28;20079;-83
2022/12/02 12:52:31;;;;;;;31.60;19.50;;;;;;;;;;5053677;28;20041;-83
2022/12/02 12:55:00;;;;;;;34.42;19.48;;;;;;;;;;5055422;28;20059;-83
2022/12/02 12:57:28;;;;;;;30.88;17.42;;;;;;;;;;5050506;28;20029;-83
2022/12/02 12:59:55;;;;;;;32.75;17.73;;;;;;;;;;5075472;28;20123;-83
2022/12/02 13:02:22;;;;;;;37.88;21.20;;;;;;;;;;5076276;28;20032;-83
2022/12/02 13:04:52;;;;;;;35.30;21.33;;;;;;;;;;5078696;28;20044;-84
2022/12/02 13:07:26;;;;;;;39.17;20.80;;;;;;;;;;5049623;28;20041;-83
2022/12/02 13:09:53;;;;;;;39.20;20.60;;;;;;;;;;5075908;28;20075;-84
2022/12/02 13:12:21;;;;;;;35.60;20.00;;;;;;;;;;5072271;28;20045;-84
2022/12/02 13:14:48;;;;;;;36.40;19.85;;;;;;;;;;5078696;28;20164;-83
2022/12/02 13:17:16;;;;;;;36.70;21.10;;;;;;;;;;5071127;28;20040;-83
2022/12/02 13:19:43;;;;;;;37.45;19.65;;;;;;;;;;5054679;28;20086;-84
2022/12/02 13:22:11;;;;;;;33.03;19.20;;;;;;;;;;5078370;28;20037;-84
2022/12/02 13:24:38;;;;;;;37.13;21.30;;;;;;;;;;5077905;28;20513;-83
2022/12/02 13:27:09;;;;;;;37.33;21.10;;;;;;;;;;5076678;28;20047;-84
2022/12/02 13:29:37;;;;;;;30.20;19.55;;;;;;;;;;5074843;28;20079;-84
2022/12/02 13:32:04;;;;;;;37.92;19.15;;;;;;;;;;5058046;28;20041;-84
2022/12/02 13:34:34;;;;;;;37.30;20.73;;;;;;;;;;5078269;28;20059;-84
2022/12/02 13:37:01;;;;;;;36.40;20.90;;;;;;;;;;5079544;28;20076;-84
2022/12/02 13:39:31;;;;;;;28.90;18.08;;;;;;;;;;5078426;28;20051;-83
2022/12/02 13:41:58;;;;;;;41.15;21.00;;;;;;;;;;5066850;28;20040;-84
2022/12/02 13:44:25;;;;;;;36.63;20.92;;;;;;;;;;5062850;28;20419;-84
2022/12/02 13:46:53;;;;;;;34.50;20.63;;;;;;;;;;5060742;28;20044;-83
2022/12/02 13:49:20;;;;;;;35.90;20.15;;;;;;;;;;5054490;28;20131;-82
2022/12/02 13:51:48;;;;;;;37.53;20.67;;;;;;;;;;5055426;28;20041;-84
2022/12/02 13:54:15;;;;;;;39.10;20.90;;;;;;;;;;5054952;28;20564;-82
2022/12/02 13:56:45;;;;;;;39.33;20.17;;;;;;;;;;5036059;28;20502;-83
2022/12/02 13:59:12;;;;;;;33.80;20.10;;;;;;;;;;5050080;28;20116;-82
2022/12/02 14:01:40;;;;;;;27.13;16.90;;;;;;;;;;5069363;28;20033;-84
2022/12/02 14:04:08;;;;;;;34.85;21.33;;;;;;;;;;5050022;28;20036;-84
2022/12/02 14:06:35;;;;;;;33.67;20.08;;;;;;;;;;5056404;28;20044;-84
2022/12/02 14:09:03;;;;;;;33.65;19.23;;;;;;;;;;5049299;28;20148;-84
2022/12/02 14:11:30;;;;;;;32.22;19.92;;;;;;;;;;5049756;28;20530;-84
2022/12/02 14:13:57;;;;;;;34.58;20.05;;;;;;;;;;5057310;28;20048;-84
2022/12/02 14:16:25;;;;;;;39.63;21.10;;;;;;;;;;5009793;28;20063;-84
2022/12/02 14:18:53;;;;;;;35.58;20.70;;;;;;;;;;5039385;28;20045;-83
2022/12/02 14:21:24;;;;;;;34.73;19.60;;;;;;;;;;5059553;28;20106;-83
2022/12/02 14:23:51;;;;;;;35.65;19.67;;;;;;;;;;5042606;28;20167;-85
2022/12/02 14:26:19;;;;;;;33.28;19.20;;;;;;;;;;5057316;28;20045;-84
2022/12/02 14:28:46;;;;;;;34.53;19.08;;;;;;;;;;5038709;28;20514;-84
2022/12/02 14:31:13;;;;;;;34.00;20.23;;;;;;;;;;5055880;28;20048;-83
2022/12/02 14:33:52;;;;;;;47.10;29.90;;;;;;;;;;5078494;22;20040;-84
2022/12/02 14:36:41;;;;;;;33.72;19.63;;;;;;;;;;5033739;28;20049;-81
2022/12/02 14:39:09;;;;;;;38.83;21.67;;;;;;;;;;5068777;28;20449;-82